Time;durP1;ratioP1;P1;durP2;ratioP2;P2;SDS_P1;SDS_P2;PMS_P1;PMS_P2;Temp;Humidity;BMP_temperature;BMP_pressure;BME280_temperature;BME280_humidity;BME280_pressure;Samples;Min_cycle;Max_cycle;Signal;HPM_P1;HPM_P2
2021/12/01 00:01:03;;;;;;;1.80;1.50;;;6.40;99.90;;;;;;5049965;28;20459;-74
2021/12/01 00:03:29;;;;;;;1.40;1.13;;;6.40;99.90;;;;;;5031330;28;20463;-74
2021/12/01 00:05:54;;;;;;;1.60;1.50;;;6.40;99.90;;;;;;5050077;28;20461;-74
2021/12/01 00:08:21;;;;;;;2.23;1.10;;;6.40;99.90;;;;;;5058949;28;20230;-74
2021/12/01 00:10:47;;;;;;;1.60;1.30;;;6.40;99.90;;;;;;5050343;28;20458;-74
2021/12/01 00:13:15;;;;;;;1.73;1.63;;;6.40;99.90;;;;;;5051976;28;20962;-72
2021/12/01 00:15:42;;;;;;;1.77;1.57;;;6.40;99.90;;;;;;5050407;28;20454;-74
2021/12/01 00:18:08;;;;;;;2.57;1.13;;;6.40;99.90;;;;;;5037188;28;20482;-74
2021/12/01 00:20:34;;;;;;;1.20;1.03;;;6.40;99.90;;;;;;5050213;28;20493;-74
2021/12/01 00:22:59;;;;;;;1.40;1.30;;;6.40;99.90;;;;;;5012550;28;20220;-74
2021/12/01 00:25:29;;;;;;;1.10;1.00;;;6.40;99.90;;;;;;5033645;28;20711;-74
2021/12/01 00:27:55;;;;;;;2.53;1.30;;;6.40;99.90;;;;;;5057974;28;20461;-74
2021/12/01 00:30:22;;;;;;;1.20;1.10;;;6.40;99.90;;;;;;5033895;28;20533;-75
2021/12/01 00:32:48;;;;;;;1.57;1.37;;;6.40;99.90;;;;;;5046606;28;20508;-74
2021/12/01 00:35:14;;;;;;;1.30;1.20;;;6.40;99.90;;;;;;5050026;28;20808;-74
2021/12/01 00:37:42;;;;;;;1.73;1.63;;;6.40;99.90;;;;;;5051089;28;20500;-74
2021/12/01 00:40:10;;;;;;;1.90;1.27;;;6.40;99.90;;;;;;5033574;28;20822;-73
2021/12/01 00:42:36;;;;;;;1.20;1.10;;;6.40;99.90;;;;;;5032911;28;20474;-74
2021/12/01 00:45:09;;;;;;;1.37;1.27;;;6.40;99.90;;;;;;5049059;28;20528;-75
2021/12/01 00:48:08;;;;;;;1.60;1.50;;;6.40;99.90;;;;;;5049957;28;20442;-75
2021/12/01 00:50:33;;;;;;;1.87;1.73;;;6.40;99.90;;;;;;5043474;28;20455;-74
2021/12/01 00:53:03;;;;;;;1.50;1.30;;;6.40;99.90;;;;;;5049125;28;20445;-74
2021/12/01 00:55:29;;;;;;;1.90;1.60;;;6.40;99.90;;;;;;5050626;28;20469;-74
2021/12/01 00:57:55;;;;;;;1.43;0.77;;;6.40;99.90;;;;;;5032059;28;20569;-75
2021/12/01 01:00:23;;;;;;;1.17;1.10;;;6.40;99.90;;;;;;5049875;28;20482;-74
2021/12/01 01:02:50;;;;;;;1.30;1.17;;;6.40;99.90;;;;;;5048595;28;20469;-74
2021/12/01 01:05:16;;;;;;;0.63;0.63;;;6.30;99.90;;;;;;5032732;28;20443;-74
2021/12/01 01:07:42;;;;;;;1.30;1.17;;;6.30;99.90;;;;;;5057217;28;20462;-74
2021/12/01 01:10:29;;;;;;;1.73;0.60;;;6.30;99.90;;;;;;5029656;28;20354;-72
2021/12/01 01:18:33;;;;;;;0.63;0.60;;;6.30;99.90;;;;;;5050197;28;20837;-73
2021/12/01 01:21:00;;;;;;;0.63;0.60;;;6.30;99.90;;;;;;5028440;28;20958;-74
2021/12/01 01:23:26;;;;;;;0.60;0.43;;;6.30;99.90;;;;;;5049010;28;20540;-74
2021/12/01 01:25:53;;;;;;;0.57;0.53;;;6.20;99.90;;;;;;5048583;28;20451;-73
2021/12/01 01:28:19;;;;;;;0.53;0.53;;;6.20;99.90;;;;;;5032763;28;20463;-74
2021/12/01 01:30:45;;;;;;;0.40;0.40;;;6.20;99.90;;;;;;5048898;28;20532;-75
2021/12/01 01:33:11;;;;;;;0.60;0.47;;;6.20;99.90;;;;;;5048647;28;20785;-74
2021/12/01 01:35:36;;;;;;;0.50;0.40;;;6.20;99.90;;;;;;5048721;28;20282;-73
2021/12/01 01:38:02;;;;;;;0.40;0.40;;;6.20;99.90;;;;;;5032844;28;20492;-74
2021/12/01 01:40:28;;;;;;;0.83;0.70;;;6.20;99.90;;;;;;5050347;28;20587;-75
2021/12/01 01:42:54;;;;;;;0.40;0.40;;;6.20;99.90;;;;;;5048677;28;20338;-73
2021/12/01 01:45:19;;;;;;;0.50;0.50;;;6.20;99.90;;;;;;5048226;28;20235;-74
2021/12/01 01:48:00;;;;;;;0.60;0.50;;;6.20;99.90;;;;;;5048582;28;20215;-73
2021/12/01 01:50:36;;;;;;;0.97;0.50;;;6.20;99.90;;;;;;5032449;28;20454;-74
2021/12/01 01:53:09;;;;;;;0.60;0.50;;;6.20;99.90;;;;;;5032150;28;20442;-74
2021/12/01 01:55:39;;;;;;;0.50;0.43;;;6.20;99.90;;;;;;5030886;28;20451;-73
2021/12/01 01:58:05;;;;;;;0.50;0.50;;;6.20;99.90;;;;;;5052754;28;20461;-73
2021/12/01 02:00:35;;;;;;;0.50;0.47;;;6.20;99.90;;;;;;5049533;28;20459;-75
2021/12/01 02:03:00;;;;;;;0.83;0.70;;;6.30;99.90;;;;;;5044346;28;21050;-74
2021/12/01 02:05:26;;;;;;;0.50;0.40;;;6.20;99.90;;;;;;5049964;28;20462;-74
2021/12/01 02:07:53;;;;;;;0.40;0.33;;;6.20;99.90;;;;;;5049686;28;20592;-75
2021/12/01 02:10:21;;;;;;;0.50;0.40;;;6.20;99.90;;;;;;5048442;28;20667;-74
2021/12/01 02:12:47;;;;;;;0.60;0.60;;;6.20;99.90;;;;;;5045156;28;20450;-75
2021/12/01 02:15:14;;;;;;;0.50;0.50;;;6.20;99.90;;;;;;5048214;28;20450;-74
2021/12/01 02:17:39;;;;;;;0.40;0.30;;;6.20;99.90;;;;;;5034502;28;20307;-74
2021/12/01 02:20:18;;;;;;;0.60;0.40;;;6.20;99.90;;;;;;5048741;28;20550;-74
2021/12/01 02:22:44;;;;;;;2.13;0.30;;;6.10;99.90;;;;;;5049031;28;20208;-74
2021/12/01 02:25:10;;;;;;;0.40;0.30;;;6.10;99.90;;;;;;5048260;28;21141;-74
2021/12/01 02:27:35;;;;;;;0.40;0.40;;;6.10;99.90;;;;;;5058057;28;20218;-74
2021/12/01 02:30:02;;;;;;;0.93;0.60;;;6.10;99.90;;;;;;5048328;28;20450;-74
2021/12/01 02:32:27;;;;;;;0.50;0.50;;;6.10;99.90;;;;;;5049842;28;20570;-74
2021/12/01 02:34:53;;;;;;;0.60;0.40;;;6.10;99.90;;;;;;5047341;28;20464;-74
2021/12/01 02:37:21;;;;;;;0.90;0.67;;;6.10;99.90;;;;;;5049773;28;20204;-75
2021/12/01 02:39:50;;;;;;;0.60;0.50;;;6.10;99.90;;;;;;5053974;28;20227;-74
2021/12/01 02:42:19;;;;;;;0.73;0.40;;;6.10;99.90;;;;;;5031893;28;20542;-74
2021/12/01 02:44:45;;;;;;;0.60;0.60;;;6.00;99.90;;;;;;5031149;28;20572;-74
2021/12/01 02:47:12;;;;;;;0.53;0.53;;;6.00;99.90;;;;;;5048310;28;20471;-74
2021/12/01 02:49:37;;;;;;;0.70;0.57;;;5.90;99.90;;;;;;5049643;28;20461;-74
2021/12/01 02:52:03;;;;;;;0.70;0.70;;;5.90;99.90;;;;;;5048608;28;20962;-75
2021/12/01 02:54:29;;;;;;;0.63;0.63;;;5.90;99.90;;;;;;5047361;28;20696;-74
2021/12/01 02:56:55;;;;;;;0.63;0.63;;;5.90;99.90;;;;;;5047702;28;20523;-73
2021/12/01 02:59:22;;;;;;;0.90;0.60;;;5.90;99.90;;;;;;5051343;28;20224;-73
2021/12/01 03:01:48;;;;;;;0.97;0.93;;;5.90;99.90;;;;;;5026114;28;20569;-73
2021/12/01 03:04:14;;;;;;;0.70;0.67;;;5.80;99.90;;;;;;5023617;28;20514;-73
2021/12/01 03:06:44;;;;;;;1.90;0.83;;;5.80;99.90;;;;;;5036562;28;20530;-73
2021/12/01 03:09:12;;;;;;;2.40;0.70;;;5.80;99.90;;;;;;5065189;28;20438;-72
2021/12/01 03:11:38;;;;;;;0.80;0.80;;;5.80;99.90;;;;;;5051660;28;20937;-72
2021/12/01 03:14:09;;;;;;;1.80;1.30;;;5.80;99.90;;;;;;5051332;28;20529;-72
2021/12/01 03:16:35;;;;;;;0.77;0.77;;;5.90;99.90;;;;;;5051734;28;20220;-72
2021/12/01 03:19:01;;;;;;;1.43;1.33;;;5.80;99.90;;;;;;5052541;28;20453;-71
2021/12/01 03:21:27;;;;;;;1.10;0.80;;;5.80;99.90;;;;;;5051425;28;20450;-72
2021/12/01 03:23:52;;;;;;;3.23;1.57;;;5.80;99.90;;;;;;5050458;28;20224;-74
2021/12/01 03:26:18;;;;;;;0.97;0.97;;;5.90;99.90;;;;;;5052495;28;20220;-72
2021/12/01 03:28:44;;;;;;;1.30;1.20;;;5.90;99.90;;;;;;5042395;28;20220;-72
2021/12/01 03:31:10;;;;;;;2.90;1.80;;;5.80;99.90;;;;;;5051565;28;20244;-70
2021/12/01 03:33:35;;;;;;;2.60;1.10;;;5.80;99.90;;;;;;5034791;28;20224;-69
2021/12/01 03:36:01;;;;;;;1.90;1.70;;;5.80;99.90;;;;;;5034304;28;20679;-73
2021/12/01 03:38:28;;;;;;;1.20;1.20;;;5.80;99.90;;;;;;5037000;28;20282;-72
2021/12/01 03:40:55;;;;;;;1.63;1.43;;;5.80;99.90;;;;;;5034328;28;20512;-73
2021/12/01 03:43:21;;;;;;;6.93;2.13;;;5.80;99.90;;;;;;5061079;28;20472;-71
2021/12/01 03:45:47;;;;;;;1.97;1.50;;;5.70;99.90;;;;;;5053589;28;20456;-74
2021/12/01 03:48:13;;;;;;;2.63;1.83;;;5.80;99.90;;;;;;5055069;28;20949;-72
2021/12/01 03:50:41;;;;;;;2.00;1.80;;;5.80;99.90;;;;;;5066241;28;20458;-72
2021/12/01 03:53:07;;;;;;;1.57;1.47;;;5.80;99.90;;;;;;5051007;28;20306;-72
2021/12/01 03:55:34;;;;;;;2.30;1.60;;;5.80;99.90;;;;;;5050357;28;20541;-73
2021/12/01 03:58:00;;;;;;;2.03;1.60;;;5.80;99.90;;;;;;5038292;28;20950;-73
2021/12/01 04:00:25;;;;;;;2.10;1.90;;;5.80;99.90;;;;;;5054790;28;20465;-72
2021/12/01 04:02:51;;;;;;;2.23;1.80;;;5.80;99.90;;;;;;5053773;28;20223;-72
2021/12/01 04:05:17;;;;;;;1.30;1.20;;;5.80;99.90;;;;;;5061381;28;20273;-73
2021/12/01 04:07:44;;;;;;;2.13;1.50;;;5.80;99.90;;;;;;5050438;28;20593;-73
2021/12/01 04:10:14;;;;;;;2.70;1.70;;;5.90;99.90;;;;;;5049482;28;20450;-70
2021/12/01 04:12:41;;;;;;;3.27;1.53;;;5.90;99.90;;;;;;5050246;28;20224;-73
2021/12/01 04:15:08;;;;;;;2.73;2.00;;;5.90;99.90;;;;;;5029229;28;20455;-73
2021/12/01 04:17:34;;;;;;;2.47;2.10;;;5.90;99.90;;;;;;5054034;28;20443;-73
2021/12/01 04:19:59;;;;;;;2.13;1.77;;;5.90;99.90;;;;;;5033532;28;20454;-72
2021/12/01 04:22:25;;;;;;;2.33;1.77;;;5.90;99.90;;;;;;5033491;28;20228;-73
2021/12/01 04:24:51;;;;;;;1.87;1.70;;;5.90;99.90;;;;;;5049063;28;20294;-74
2021/12/01 04:27:17;;;;;;;1.50;1.27;;;5.80;99.90;;;;;;5040967;28;20710;-73
2021/12/01 04:29:42;;;;;;;1.40;1.30;;;5.80;99.90;;;;;;5033246;28;20652;-72
2021/12/01 04:32:08;;;;;;;1.57;1.43;;;5.80;99.90;;;;;;5033774;28;20219;-73
2021/12/01 04:34:37;;;;;;;1.70;1.30;;;5.80;99.90;;;;;;5050213;28;20245;-73
2021/12/01 04:37:04;;;;;;;1.57;1.47;;;5.80;99.90;;;;;;5038761;28;20229;-73
2021/12/01 04:39:30;;;;;;;1.47;1.37;;;5.80;99.90;;;;;;5053566;28;20450;-73
2021/12/01 04:42:04;;;;;;;2.00;1.40;;;5.80;99.90;;;;;;5049458;28;20438;-71
2021/12/01 04:44:31;;;;;;;1.43;1.33;;;5.80;99.90;;;;;;5049336;28;20451;-73
2021/12/01 04:46:58;;;;;;;1.20;1.10;;;5.80;99.90;;;;;;5037160;28;20471;-73
2021/12/01 04:49:24;;;;;;;1.77;1.27;;;5.80;99.90;;;;;;5036399;28;20824;-72
2021/12/01 04:51:55;;;;;;;2.10;1.40;;;5.80;99.90;;;;;;5048915;28;20507;-74
2021/12/01 04:54:22;;;;;;;1.50;1.40;;;5.80;99.90;;;;;;5033047;28;21027;-73
2021/12/01 04:56:49;;;;;;;1.50;1.20;;;5.80;99.90;;;;;;5054039;28;20503;-73
2021/12/01 04:59:16;;;;;;;2.30;1.77;;;5.80;99.90;;;;;;5055180;28;20849;-70
2021/12/01 05:01:42;;;;;;;1.60;1.50;;;5.80;99.90;;;;;;5049268;28;20946;-73
2021/12/01 05:04:10;;;;;;;4.17;1.97;;;5.80;99.90;;;;;;5049543;28;20461;-73
2021/12/01 05:06:36;;;;;;;1.83;1.53;;;5.80;99.90;;;;;;5032526;28;20462;-72
2021/12/01 05:09:03;;;;;;;2.40;1.57;;;5.80;99.90;;;;;;5050656;28;20976;-73
2021/12/01 05:11:29;;;;;;;1.60;1.50;;;5.80;99.90;;;;;;5030470;28;20500;-72
2021/12/01 05:13:55;;;;;;;1.37;1.27;;;5.80;99.90;;;;;;5029144;28;20452;-72
2021/12/01 05:16:21;;;;;;;2.67;2.47;;;5.80;99.90;;;;;;5029287;28;20238;-73
2021/12/01 05:18:47;;;;;;;1.50;1.40;;;5.80;99.90;;;;;;5032355;28;20215;-73
2021/12/01 05:21:13;;;;;;;2.30;1.90;;;5.80;99.90;;;;;;5031434;28;20480;-72
2021/12/01 05:23:39;;;;;;;2.50;2.20;;;5.80;99.90;;;;;;5031881;28;20232;-73
2021/12/01 05:26:06;;;;;;;5.03;1.83;;;5.80;99.90;;;;;;5050441;28;20463;-72
2021/12/01 05:28:32;;;;;;;5.90;2.10;;;5.80;99.90;;;;;;5032682;28;20238;-73
2021/12/01 05:30:58;;;;;;;4.50;2.30;;;5.80;99.90;;;;;;5028969;28;20448;-73
2021/12/01 05:33:24;;;;;;;2.53;2.33;;;5.80;99.90;;;;;;5045129;28;20466;-73
2021/12/01 05:35:50;;;;;;;3.50;2.60;;;5.80;99.90;;;;;;5030305;28;20255;-73
2021/12/01 05:38:16;;;;;;;4.57;2.30;;;5.80;99.90;;;;;;5046746;28;20216;-73
2021/12/01 05:40:42;;;;;;;2.57;2.13;;;5.80;99.90;;;;;;5049470;28;20629;-72
2021/12/01 05:43:08;;;;;;;4.90;2.43;;;5.80;99.90;;;;;;5032154;28;20451;-72
2021/12/01 05:45:34;;;;;;;2.90;2.50;;;5.80;99.90;;;;;;5049055;28;20224;-72
2021/12/01 05:48:00;;;;;;;3.20;2.50;;;5.80;99.90;;;;;;5048619;28;20434;-72
2021/12/01 05:50:26;;;;;;;3.47;2.23;;;5.80;99.90;;;;;;5048971;28;20446;-72
2021/12/01 05:52:51;;;;;;;3.70;2.80;;;5.80;99.90;;;;;;5047897;28;20258;-74
2021/12/01 05:55:17;;;;;;;3.60;3.00;;;5.80;99.90;;;;;;5048920;28;20214;-73
2021/12/01 05:57:43;;;;;;;3.37;2.27;;;5.80;99.90;;;;;;5046001;28;20204;-73
2021/12/01 06:00:11;;;;;;;3.00;2.17;;;5.90;99.90;;;;;;5035047;28;20211;-73
2021/12/01 06:02:38;;;;;;;2.60;2.40;;;5.80;99.90;;;;;;5049418;28;20224;-72
2021/12/01 06:05:05;;;;;;;2.90;2.50;;;5.80;99.90;;;;;;5048523;28;20953;-72
2021/12/01 06:07:30;;;;;;;4.30;2.67;;;5.80;99.90;;;;;;5048320;28;20450;-73
2021/12/01 06:10:01;;;;;;;2.57;2.37;;;5.90;99.90;;;;;;5028678;28;20617;-73
2021/12/01 06:12:27;;;;;;;4.20;2.60;;;5.90;99.90;;;;;;5036502;28;20247;-71
2021/12/01 06:14:53;;;;;;;3.80;2.90;;;5.90;99.90;;;;;;5048900;28;20463;-72
2021/12/01 06:17:19;;;;;;;3.90;2.83;;;5.90;99.90;;;;;;5049850;28;20450;-73
2021/12/01 06:19:45;;;;;;;3.87;2.47;;;5.90;99.90;;;;;;5049285;28;20596;-73
2021/12/01 06:22:11;;;;;;;2.90;2.47;;;5.90;99.90;;;;;;5031603;28;20223;-73
2021/12/01 06:24:36;;;;;;;3.70;3.00;;;5.90;99.90;;;;;;5030422;28;20259;-73
2021/12/01 06:27:03;;;;;;;3.30;2.47;;;5.90;99.90;;;;;;5050868;28;20203;-74
2021/12/01 06:29:29;;;;;;;4.60;3.13;;;5.90;99.90;;;;;;5048772;28;20243;-74
2021/12/01 06:31:55;;;;;;;2.60;2.40;;;5.90;99.90;;;;;;5051519;28;20634;-73
2021/12/01 06:34:20;;;;;;;3.63;2.60;;;5.90;99.90;;;;;;5052610;28;20259;-73
2021/12/01 06:36:46;;;;;;;3.00;2.43;;;5.90;99.90;;;;;;5052174;28;20212;-74
2021/12/01 06:39:12;;;;;;;3.67;2.60;;;5.90;99.90;;;;;;5052888;28;20212;-73
2021/12/01 06:41:38;;;;;;;4.23;2.73;;;5.90;99.90;;;;;;5052394;28;20349;-73
2021/12/01 06:44:04;;;;;;;4.13;2.70;;;5.90;99.90;;;;;;5051563;28;20707;-73
2021/12/01 06:46:30;;;;;;;2.30;2.10;;;5.90;99.90;;;;;;5050400;28;20224;-73
2021/12/01 06:48:58;;;;;;;3.90;2.27;;;5.90;99.90;;;;;;5052482;28;25836;-74
2021/12/01 06:51:25;;;;;;;7.40;3.10;;;5.90;99.90;;;;;;5035420;28;20446;-73
2021/12/01 06:53:51;;;;;;;2.50;2.30;;;5.90;99.90;;;;;;5051029;28;20489;-73
2021/12/01 06:56:19;;;;;;;2.70;1.90;;;5.90;99.90;;;;;;5034765;28;20482;-74
2021/12/01 06:58:45;;;;;;;3.73;2.60;;;5.90;99.90;;;;;;5047605;28;20471;-74
2021/12/01 07:01:12;;;;;;;2.57;2.20;;;5.90;99.90;;;;;;5046529;28;20484;-73
2021/12/01 07:03:38;;;;;;;2.57;1.83;;;5.90;99.90;;;;;;5052449;28;20500;-75
2021/12/01 07:06:04;;;;;;;2.00;1.80;;;5.90;99.90;;;;;;5035274;28;20455;-74
2021/12/01 07:08:31;;;;;;;2.47;2.03;;;5.90;99.90;;;;;;5051942;28;20458;-74
2021/12/01 07:10:56;;;;;;;2.20;2.00;;;5.90;99.90;;;;;;5034606;28;20458;-74
2021/12/01 07:13:22;;;;;;;3.77;2.07;;;5.90;99.90;;;;;;5051562;28;20503;-73
2021/12/01 07:15:48;;;;;;;2.37;2.00;;;5.90;99.90;;;;;;5049919;28;20515;-73
2021/12/01 07:18:14;;;;;;;1.97;1.83;;;5.90;99.90;;;;;;5034617;28;20243;-73
2021/12/01 07:20:40;;;;;;;1.63;1.53;;;5.90;99.90;;;;;;5033739;28;20236;-74
2021/12/01 07:23:05;;;;;;;2.33;1.60;;;6.00;99.90;;;;;;5050685;28;20235;-73
2021/12/01 07:25:32;;;;;;;1.30;1.20;;;6.00;99.90;;;;;;5051121;28;20450;-74
2021/12/01 07:27:58;;;;;;;2.03;1.93;;;6.00;99.90;;;;;;5050835;28;20438;-74
2021/12/01 07:30:25;;;;;;;1.87;1.70;;;6.00;99.90;;;;;;5051431;28;20450;-73
2021/12/01 07:32:51;;;;;;;3.03;1.43;;;6.00;99.90;;;;;;5050851;28;20474;-74
2021/12/01 07:35:17;;;;;;;1.77;1.50;;;6.00;99.90;;;;;;5040122;28;20482;-73
2021/12/01 07:37:44;;;;;;;1.93;1.60;;;6.00;99.90;;;;;;5051629;28;20219;-74
2021/12/01 07:40:11;;;;;;;1.47;1.40;;;6.00;99.90;;;;;;5033316;28;20442;-71
2021/12/01 07:42:37;;;;;;;2.20;1.63;;;6.10;99.90;;;;;;5049724;28;20494;-74
2021/12/01 07:45:04;;;;;;;1.37;1.27;;;6.10;99.90;;;;;;5050421;28;20555;-70
2021/12/01 07:47:31;;;;;;;1.73;1.47;;;6.10;99.90;;;;;;5051030;28;20977;-74
2021/12/01 07:49:56;;;;;;;1.43;1.33;;;6.10;99.90;;;;;;5034058;28;20457;-74
2021/12/01 07:52:22;;;;;;;1.63;1.30;;;6.10;99.90;;;;;;5033081;28;20525;-73
2021/12/01 07:54:48;;;;;;;2.10;1.00;;;6.10;99.90;;;;;;5042942;28;20230;-74
2021/12/01 07:57:14;;;;;;;1.00;0.80;;;6.10;99.90;;;;;;5046451;28;20228;-74
2021/12/01 07:59:41;;;;;;;1.17;1.10;;;6.10;99.90;;;;;;5049093;28;20231;-75
2021/12/01 08:02:07;;;;;;;1.43;1.23;;;6.10;99.90;;;;;;5029561;28;20963;-74
2021/12/01 08:04:33;;;;;;;1.37;1.07;;;6.20;99.90;;;;;;5038234;28;20461;-74
2021/12/01 08:06:59;;;;;;;1.33;1.23;;;6.10;99.90;;;;;;5030929;28;20508;-74
2021/12/01 08:09:25;;;;;;;2.20;1.20;;;6.10;99.90;;;;;;5032947;28;20463;-74
2021/12/01 08:11:52;;;;;;;1.00;1.00;;;6.10;99.90;;;;;;5032959;28;20484;-74
2021/12/01 08:14:18;;;;;;;1.30;1.20;;;6.10;99.90;;;;;;5048302;28;20220;-75
2021/12/01 08:16:45;;;;;;;1.90;1.20;;;6.20;99.90;;;;;;5048869;28;20453;-74
2021/12/01 08:19:10;;;;;;;0.50;0.50;;;6.20;99.90;;;;;;5049867;28;20442;-74
2021/12/01 08:21:36;;;;;;;0.80;0.80;;;6.20;99.90;;;;;;5048767;28;21000;-73
2021/12/01 08:24:02;;;;;;;1.10;1.10;;;6.20;99.90;;;;;;5047475;28;20224;-72
2021/12/01 08:26:28;;;;;;;1.17;1.07;;;6.20;99.90;;;;;;5032239;28;20253;-74
2021/12/01 08:28:54;;;;;;;1.60;1.23;;;6.20;99.90;;;;;;5049295;28;20458;-72
2021/12/01 08:31:20;;;;;;;1.20;1.10;;;6.20;99.90;;;;;;5029188;28;20803;-74
2021/12/01 08:33:48;;;;;;;0.77;0.70;;;6.20;99.90;;;;;;5050143;28;20218;-73
2021/12/01 08:36:14;;;;;;;0.67;0.67;;;6.20;99.90;;;;;;5050627;28;20458;-74
2021/12/01 08:38:40;;;;;;;0.80;0.80;;;6.30;99.90;;;;;;5048787;28;20466;-73
2021/12/01 08:41:07;;;;;;;1.23;0.67;;;6.30;99.90;;;;;;5029470;28;20479;-74
2021/12/01 08:43:34;;;;;;;1.00;0.90;;;6.30;99.90;;;;;;5046425;28;20475;-74
2021/12/01 08:46:03;;;;;;;0.87;0.80;;;6.30;99.90;;;;;;5045634;28;20450;-74
2021/12/01 08:48:29;;;;;;;1.00;0.90;;;6.30;99.90;;;;;;5047191;28;20446;-74
2021/12/01 08:50:56;;;;;;;1.90;0.80;;;6.30;99.90;;;;;;5048773;28;20481;-73
2021/12/01 08:53:25;;;;;;;1.20;1.10;;;6.30;99.90;;;;;;5048548;28;20307;-73
2021/12/01 08:55:51;;;;;;;1.43;1.00;;;6.30;99.90;;;;;;5049026;28;20462;-74
2021/12/01 08:58:19;;;;;;;0.80;0.70;;;6.40;99.90;;;;;;5049574;28;20553;-74
2021/12/01 09:00:46;;;;;;;0.93;0.90;;;6.40;99.90;;;;;;5048342;28;20296;-74
2021/12/01 09:03:13;;;;;;;1.53;0.73;;;6.40;99.90;;;;;;5032241;28;20542;-74
2021/12/01 09:05:40;;;;;;;1.53;0.83;;;6.40;99.90;;;;;;5029644;28;20459;-74
2021/12/01 09:08:06;;;;;;;0.80;0.80;;;6.40;99.90;;;;;;5044158;28;20447;-74
2021/12/01 09:10:32;;;;;;;0.77;0.77;;;6.50;99.90;;;;;;5049165;28;20559;-74
2021/12/01 09:12:59;;;;;;;1.00;0.90;;;6.50;99.90;;;;;;5032029;28;20453;-75
2021/12/01 09:15:25;;;;;;;0.70;0.70;;;6.50;99.90;;;;;;5049053;28;20465;-74
2021/12/01 09:17:51;;;;;;;0.80;0.80;;;6.50;99.90;;;;;;5048599;28;20458;-74
2021/12/01 09:20:17;;;;;;;1.80;0.70;;;6.50;99.90;;;;;;5048096;28;20553;-73
2021/12/01 09:22:42;;;;;;;0.70;0.57;;;6.50;99.90;;;;;;5031479;28;20223;-74
2021/12/01 09:25:09;;;;;;;1.50;0.83;;;6.50;99.90;;;;;;5031016;28;20647;-74
2021/12/01 09:27:36;;;;;;;0.70;0.70;;;6.50;99.90;;;;;;5064520;28;20454;-74
2021/12/01 09:30:03;;;;;;;1.57;0.70;;;6.50;99.90;;;;;;5030303;28;20492;-74
2021/12/01 09:32:28;;;;;;;1.30;1.20;;;6.60;99.90;;;;;;5047453;28;20454;-74
2021/12/01 09:34:54;;;;;;;1.03;0.83;;;6.60;99.90;;;;;;5047654;28;20466;-73
2021/12/01 09:37:20;;;;;;;0.80;0.70;;;6.60;99.90;;;;;;5048335;28;20262;-74
2021/12/01 09:39:46;;;;;;;1.47;0.80;;;6.60;99.90;;;;;;5031132;28;20230;-73
2021/12/01 09:42:12;;;;;;;0.73;0.50;;;6.60;99.90;;;;;;5050381;28;20888;-73
2021/12/01 09:44:39;;;;;;;0.60;0.60;;;6.60;99.90;;;;;;5068225;28;20227;-72
2021/12/01 09:47:05;;;;;;;0.83;0.83;;;6.60;99.90;;;;;;5048612;28;20881;-74
2021/12/01 09:49:32;;;;;;;0.70;0.70;;;6.70;99.90;;;;;;5047789;28;20458;-74
2021/12/01 09:51:58;;;;;;;0.77;0.67;;;6.70;99.90;;;;;;5048132;28;20446;-74
2021/12/01 09:54:24;;;;;;;1.00;0.50;;;6.70;99.90;;;;;;5031804;28;20974;-74
2021/12/01 09:56:50;;;;;;;0.63;0.60;;;6.70;99.90;;;;;;5031097;28;20562;-75
2021/12/01 09:59:16;;;;;;;1.03;0.70;;;6.70;99.90;;;;;;5031792;28;20534;-75
2021/12/01 10:01:42;;;;;;;0.63;0.43;;;6.80;99.90;;;;;;5049782;28;20725;-74
2021/12/01 10:04:08;;;;;;;0.63;0.63;;;6.80;99.90;;;;;;5048512;28;20231;-76
2021/12/01 10:06:34;;;;;;;0.60;0.37;;;6.80;99.90;;;;;;5030230;28;20512;-74
2021/12/01 10:09:07;;;;;;;0.73;0.60;;;6.80;99.90;;;;;;5031450;28;20228;-74
2021/12/01 10:11:36;;;;;;;0.87;0.60;;;6.80;99.90;;;;;;5049926;28;20212;-74
2021/12/01 10:14:08;;;;;;;0.70;0.70;;;6.80;99.90;;;;;;5053009;28;20457;-75
2021/12/01 10:16:37;;;;;;;1.97;0.60;;;6.90;99.90;;;;;;5052487;28;20485;-76
2021/12/01 10:19:05;;;;;;;0.50;0.50;;;6.90;99.90;;;;;;5050834;28;20454;-73
2021/12/01 10:21:35;;;;;;;1.00;0.60;;;6.90;99.90;;;;;;5052089;28;20458;-74
2021/12/01 10:24:15;;;;;;;0.60;0.60;;;6.90;99.90;;;;;;5033905;28;20462;-73
2021/12/01 10:26:56;;;;;;;0.40;0.40;;;6.90;99.90;;;;;;5052787;28;20515;-74
2021/12/01 10:29:27;;;;;;;0.83;0.60;;;6.90;99.90;;;;;;5035014;28;20450;-74
2021/12/01 10:31:58;;;;;;;0.80;0.80;;;7.00;99.90;;;;;;5051966;28;20541;-74
2021/12/01 10:34:31;;;;;;;0.57;0.40;;;7.00;99.90;;;;;;5034925;28;20458;-73
2021/12/01 10:37:25;;;;;;;1.13;0.60;;;7.00;99.90;;;;;;5033800;28;20451;-74
2021/12/01 10:40:16;;;;;;;0.43;0.40;;;7.00;99.90;;;;;;5030759;28;20561;-73
2021/12/01 10:42:53;;;;;;;0.80;0.67;;;7.10;99.90;;;;;;5034115;28;20481;-75
2021/12/01 10:45:22;;;;;;;0.50;0.40;;;7.10;99.90;;;;;;5050228;28;20446;-74
2021/12/01 10:47:48;;;;;;;1.27;0.60;;;7.10;99.90;;;;;;5040739;28;20620;-74
2021/12/01 10:50:16;;;;;;;0.40;0.30;;;7.10;99.90;;;;;;5050173;28;20513;-73
2021/12/01 10:52:49;;;;;;;0.47;0.40;;;7.20;99.90;;;;;;5031572;28;20544;-72
2021/12/01 10:55:17;;;;;;;0.63;0.40;;;7.20;99.90;;;;;;5030020;28;20450;-74
2021/12/01 10:57:55;;;;;;;0.60;0.60;;;7.20;99.90;;;;;;5052600;28;20484;-73
2021/12/01 11:00:39;;;;;;;1.00;0.70;;;7.20;99.90;;;;;;5051940;28;20583;-74
2021/12/01 11:03:06;;;;;;;0.53;0.53;;;7.20;99.90;;;;;;5047581;28;20503;-74
2021/12/01 11:05:38;;;;;;;0.63;0.60;;;7.30;99.90;;;;;;5049134;28;20539;-74
2021/12/01 11:08:09;;;;;;;0.40;0.40;;;7.30;99.90;;;;;;5035011;28;20442;-74
2021/12/01 11:10:35;;;;;;;0.80;0.40;;;7.30;99.90;;;;;;5045786;28;20994;-74
2021/12/01 11:13:03;;;;;;;0.67;0.67;;;7.30;99.90;;;;;;5049426;28;20485;-76
2021/12/01 11:15:32;;;;;;;0.50;0.40;;;7.40;99.90;;;;;;5050050;28;20315;-74
2021/12/01 11:18:00;;;;;;;1.50;0.57;;;7.40;99.90;;;;;;5048682;28;20446;-74
2021/12/01 11:20:39;;;;;;;0.60;0.60;;;7.40;99.90;;;;;;5033185;28;20470;-74
2021/12/01 11:23:23;;;;;;;0.50;0.50;;;7.40;99.90;;;;;;5049442;28;20552;-76
2021/12/01 11:25:57;;;;;;;0.50;0.50;;;7.40;99.90;;;;;;5041573;28;20473;-74
2021/12/01 11:28:27;;;;;;;0.70;0.50;;;7.40;99.90;;;;;;5051948;28;20462;-74
2021/12/01 11:30:57;;;;;;;0.70;0.40;;;7.40;99.90;;;;;;5050174;28;20463;-74
2021/12/01 11:33:24;;;;;;;1.33;0.80;;;7.40;99.90;;;;;;5049797;28;20454;-73
2021/12/01 11:35:53;;;;;;;0.60;0.60;;;7.40;99.90;;;;;;5049568;28;20461;-74
2021/12/01 11:38:19;;;;;;;1.50;1.37;;;7.40;99.90;;;;;;5026515;28;20455;-74
2021/12/01 11:40:45;;;;;;;11.00;6.70;;;7.50;99.90;;;;;;5030776;28;20856;-73
2021/12/01 11:43:14;;;;;;;6.50;5.57;;;7.50;99.90;;;;;;5029661;28;20463;-75
2021/12/01 11:45:42;;;;;;;4.20;3.27;;;7.50;99.90;;;;;;5031818;28;20489;-74
2021/12/01 11:48:14;;;;;;;2.67;1.40;;;7.50;99.90;;;;;;5033535;28;20447;-70
2021/12/01 11:50:53;;;;;;;2.20;2.07;;;7.50;99.90;;;;;;5033231;28;20454;-74
2021/12/01 11:53:22;;;;;;;4.60;4.20;;;7.50;99.90;;;;;;5049953;28;20450;-73
2021/12/01 11:55:58;;;;;;;3.30;3.00;;;7.60;99.90;;;;;;5032585;28;20494;-74
2021/12/01 11:58:41;;;;;;;3.77;3.47;;;7.60;99.90;;;;;;5051160;28;20469;-74
2021/12/01 12:01:30;;;;;;;6.80;3.83;;;7.60;99.90;;;;;;5031639;28;20462;-74
2021/12/01 12:04:01;;;;;;;2.27;2.00;;;7.60;99.90;;;;;;5041000;28;20474;-74
2021/12/01 12:06:30;;;;;;;1.83;1.10;;;7.60;99.90;;;;;;5044959;28;20540;-74
2021/12/01 12:09:09;;;;;;;0.50;0.50;;;7.70;99.90;;;;;;5049516;28;21607;-75
2021/12/01 12:11:48;;;;;;;0.40;0.33;;;7.60;99.90;;;;;;5051239;28;20474;-76
2021/12/01 12:14:17;;;;;;;0.50;0.50;;;7.70;99.90;;;;;;5030056;28;20498;-75
2021/12/01 12:17:12;;;;;;;0.73;0.60;;;7.70;99.90;;;;;;5036408;28;20472;-74
2021/12/01 12:19:48;;;;;;;0.70;0.70;;;7.70;99.90;;;;;;5033361;28;20463;-74
2021/12/01 12:22:22;;;;;;;0.63;0.63;;;7.70;99.90;;;;;;5033526;28;20537;-75
2021/12/01 12:24:55;;;;;;;2.90;1.50;;;7.70;99.90;;;;;;5057919;28;20462;-74
2021/12/01 12:27:41;;;;;;;8.07;5.57;;;7.70;99.90;;;;;;5050009;28;20899;-74
2021/12/01 12:30:12;;;;;;;10.80;6.60;;;7.80;99.90;;;;;;5048587;28;20600;-74
2021/12/01 12:32:39;;;;;;;13.10;5.40;;;7.80;99.90;;;;;;5048278;28;20458;-73
2021/12/01 12:35:14;;;;;;;2.47;2.27;;;7.80;99.90;;;;;;5048546;28;20501;-74
2021/12/01 12:37:41;;;;;;;1.03;1.03;;;7.80;99.90;;;;;;5030154;28;20457;-74
2021/12/01 12:40:22;;;;;;;0.80;0.80;;;7.80;99.90;;;;;;5050346;28;20538;-74
2021/12/01 12:43:11;;;;;;;3.03;1.90;;;7.80;99.90;;;;;;5036129;28;20460;-74
2021/12/01 12:45:40;;;;;;;0.80;0.80;;;7.80;99.90;;;;;;5052700;28;20953;-74
2021/12/01 12:48:24;;;;;;;0.70;0.50;;;7.80;99.90;;;;;;5045933;28;20517;-73
2021/12/01 12:51:15;;;;;;;0.53;0.50;;;7.80;99.90;;;;;;5025903;28;20481;-74
2021/12/01 12:53:59;;;;;;;0.60;0.60;;;7.80;99.90;;;;;;5029075;28;20446;-73
2021/12/01 12:56:49;;;;;;;0.67;0.67;;;7.80;99.90;;;;;;5043439;28;20482;-73
2021/12/01 12:59:27;;;;;;;1.13;0.90;;;7.80;99.90;;;;;;5047295;28;20462;-73
2021/12/01 13:02:08;;;;;;;1.07;1.00;;;7.80;99.90;;;;;;5023082;28;20447;-74
2021/12/01 13:04:51;;;;;;;1.43;1.20;;;7.80;99.90;;;;;;5042727;28;20462;-75
2021/12/01 13:07:39;;;;;;;1.00;1.00;;;7.90;99.90;;;;;;5046228;28;20508;-73
2021/12/01 13:10:22;;;;;;;0.80;0.80;;;7.90;99.90;;;;;;5046896;28;20525;-74